sensor_id;sensor_type;location;lat;lon;timestamp;P1;durP1;ratioP1;P2;durP2;ratioP2
13816;SDS011;6979;52.116;5.286;2023-04-24T00:01:43;1.17;;;1.17;;
13816;SDS011;6979;52.116;5.286;2023-04-24T00:04:10;1.60;;;1.50;;
13816;SDS011;6979;52.116;5.286;2023-04-24T00:06:39;1.50;;;1.40;;
13816;SDS011;6979;52.116;5.286;2023-04-24T00:09:07;1.40;;;1.40;;
13816;SDS011;6979;52.116;5.286;2023-04-24T00:11:35;1.27;;;1.27;;
13816;SDS011;6979;52.116;5.286;2023-04-24T00:14:02;1.00;;;1.00;;
13816;SDS011;6979;52.116;5.286;2023-04-24T00:16:30;1.30;;;1.30;;
13816;SDS011;6979;52.116;5.286;2023-04-24T00:18:57;2.00;;;1.90;;
13816;SDS011;6979;52.116;5.286;2023-04-24T00:21:26;2.33;;;2.17;;
13816;SDS011;6979;52.116;5.286;2023-04-24T00:23:53;1.60;;;1.60;;
13816;SDS011;6979;52.116;5.286;2023-04-24T00:26:20;2.60;;;2.40;;
13816;SDS011;6979;52.116;5.286;2023-04-24T00:28:48;2.47;;;2.37;;
13816;SDS011;6979;52.116;5.286;2023-04-24T00:31:15;2.47;;;2.33;;
13816;SDS011;6979;52.116;5.286;2023-04-24T00:33:46;2.93;;;2.40;;
13816;SDS011;6979;52.116;5.286;2023-04-24T00:36:13;2.63;;;2.43;;
13816;SDS011;6979;52.116;5.286;2023-04-24T00:38:40;2.20;;;2.10;;
13816;SDS011;6979;52.116;5.286;2023-04-24T00:41:08;2.60;;;2.50;;
13816;SDS011;6979;52.116;5.286;2023-04-24T00:43:35;2.53;;;2.33;;
13816;SDS011;6979;52.116;5.286;2023-04-24T00:46:02;1.87;;;1.87;;
13816;SDS011;6979;52.116;5.286;2023-04-24T00:48:30;2.23;;;2.13;;
13816;SDS011;6979;52.116;5.286;2023-04-24T00:50:58;2.73;;;2.53;;
13816;SDS011;6979;52.116;5.286;2023-04-24T00:53:25;2.73;;;2.53;;
13816;SDS011;6979;52.116;5.286;2023-04-24T00:55:52;2.40;;;2.30;;
13816;SDS011;6979;52.116;5.286;2023-04-24T00:58:20;2.93;;;2.73;;
13816;SDS011;6979;52.116;5.286;2023-04-24T01:00:48;3.67;;;3.47;;
13816;SDS011;6979;52.116;5.286;2023-04-24T01:03:18;3.10;;;2.90;;
13816;SDS011;6979;52.116;5.286;2023-04-24T01:05:48;3.67;;;3.47;;
13816;SDS011;6979;52.116;5.286;2023-04-24T01:08:18;3.83;;;3.53;;
13816;SDS011;6979;52.116;5.286;2023-04-24T01:10:46;3.93;;;3.73;;
13816;SDS011;6979;52.116;5.286;2023-04-24T01:13:15;4.23;;;4.00;;
13816;SDS011;6979;52.116;5.286;2023-04-24T01:15:43;4.00;;;3.60;;
13816;SDS011;6979;52.116;5.286;2023-04-24T01:18:11;4.73;;;4.43;;
13816;SDS011;6979;52.116;5.286;2023-04-24T01:20:39;4.10;;;3.80;;
13816;SDS011;6979;52.116;5.286;2023-04-24T01:23:10;5.27;;;4.87;;
13816;SDS011;6979;52.116;5.286;2023-04-24T01:25:40;5.20;;;4.83;;
13816;SDS011;6979;52.116;5.286;2023-04-24T01:28:07;4.67;;;4.33;;
13816;SDS011;6979;52.116;5.286;2023-04-24T01:30:37;14.37;;;12.60;;
13816;SDS011;6979;52.116;5.286;2023-04-24T01:33:07;7.00;;;6.40;;
13816;SDS011;6979;52.116;5.286;2023-04-24T01:35:34;5.90;;;5.33;;
13816;SDS011;6979;52.116;5.286;2023-04-24T01:38:02;6.00;;;5.20;;
13816;SDS011;6979;52.116;5.286;2023-04-24T01:40:31;5.10;;;4.77;;
13816;SDS011;6979;52.116;5.286;2023-04-24T01:42:59;5.67;;;5.27;;
13816;SDS011;6979;52.116;5.286;2023-04-24T01:45:26;5.50;;;5.07;;
13816;SDS011;6979;52.116;5.286;2023-04-24T01:47:53;5.10;;;4.63;;
13816;SDS011;6979;52.116;5.286;2023-04-24T01:50:20;4.70;;;4.40;;
13816;SDS011;6979;52.116;5.286;2023-04-24T01:52:46;4.70;;;4.40;;
13816;SDS011;6979;52.116;5.286;2023-04-24T01:55:14;5.90;;;5.40;;
13816;SDS011;6979;52.116;5.286;2023-04-24T01:57:45;4.70;;;4.40;;
13816;SDS011;6979;52.116;5.286;2023-04-24T02:03:25;5.47;;;5.10;;
13816;SDS011;6979;52.116;5.286;2023-04-24T02:05:54;4.60;;;4.30;;
13816;SDS011;6979;52.116;5.286;2023-04-24T02:08:20;5.37;;;3.93;;
13816;SDS011;6979;52.116;5.286;2023-04-24T02:10:48;3.93;;;3.63;;
13816;SDS011;6979;52.116;5.286;2023-04-24T02:13:16;4.53;;;4.17;;
13816;SDS011;6979;52.116;5.286;2023-04-24T02:15:43;3.60;;;3.30;;
13816;SDS011;6979;52.116;5.286;2023-04-24T02:18:10;3.20;;;3.00;;
13816;SDS011;6979;52.116;5.286;2023-04-24T02:20:37;2.87;;;2.77;;
13816;SDS011;6979;52.116;5.286;2023-04-24T02:23:05;3.13;;;2.93;;
13816;SDS011;6979;52.116;5.286;2023-04-24T02:25:33;2.70;;;2.60;;
13816;SDS011;6979;52.116;5.286;2023-04-24T02:27:59;2.60;;;2.50;;
13816;SDS011;6979;52.116;5.286;2023-04-24T02:30:28;2.70;;;2.60;;
13816;SDS011;6979;52.116;5.286;2023-04-24T02:32:55;3.07;;;2.83;;
13816;SDS011;6979;52.116;5.286;2023-04-24T02:35:22;3.47;;;3.27;;
13816;SDS011;6979;52.116;5.286;2023-04-24T02:37:49;3.63;;;3.43;;
13816;SDS011;6979;52.116;5.286;2023-04-24T02:40:16;3.70;;;3.50;;
13816;SDS011;6979;52.116;5.286;2023-04-24T02:42:43;5.03;;;4.67;;
13816;SDS011;6979;52.116;5.286;2023-04-24T02:45:12;3.87;;;3.63;;
13816;SDS011;6979;52.116;5.286;2023-04-24T02:47:40;4.33;;;4.03;;
13816;SDS011;6979;52.116;5.286;2023-04-24T02:55:26;3.83;;;3.57;;
13816;SDS011;6979;52.116;5.286;2023-04-24T02:57:53;4.10;;;3.80;;
13816;SDS011;6979;52.116;5.286;2023-04-24T03:00:20;4.10;;;3.90;;
13816;SDS011;6979;52.116;5.286;2023-04-24T03:02:48;3.77;;;3.57;;
13816;SDS011;6979;52.116;5.286;2023-04-24T03:05:15;3.67;;;3.47;;
13816;SDS011;6979;52.116;5.286;2023-04-24T03:07:42;3.87;;;3.57;;
13816;SDS011;6979;52.116;5.286;2023-04-24T03:10:10;3.87;;;3.60;;
13816;SDS011;6979;52.116;5.286;2023-04-24T03:12:37;3.20;;;3.00;;
13816;SDS011;6979;52.116;5.286;2023-04-24T03:15:04;4.23;;;3.77;;
13816;SDS011;6979;52.116;5.286;2023-04-24T03:17:32;3.60;;;3.40;;
13816;SDS011;6979;52.116;5.286;2023-04-24T03:20:00;5.67;;;2.93;;
13816;SDS011;6979;52.116;5.286;2023-04-24T03:22:28;3.03;;;2.83;;
13816;SDS011;6979;52.116;5.286;2023-04-24T03:24:55;3.90;;;3.60;;
13816;SDS011;6979;52.116;5.286;2023-04-24T03:27:22;3.20;;;3.00;;
13816;SDS011;6979;52.116;5.286;2023-04-24T03:29:59;3.57;;;3.30;;
13816;SDS011;6979;52.116;5.286;2023-04-24T03:32:52;3.43;;;3.23;;
13816;SDS011;6979;52.116;5.286;2023-04-24T03:35:24;3.80;;;3.60;;
13816;SDS011;6979;52.116;5.286;2023-04-24T03:37:52;3.10;;;2.90;;
13816;SDS011;6979;52.116;5.286;2023-04-24T03:40:48;3.73;;;3.53;;
13816;SDS011;6979;52.116;5.286;2023-04-24T03:43:29;4.27;;;3.97;;
13816;SDS011;6979;52.116;5.286;2023-04-24T03:45:58;4.13;;;3.83;;
13816;SDS011;6979;52.116;5.286;2023-04-24T03:48:26;5.93;;;3.83;;
13816;SDS011;6979;52.116;5.286;2023-04-24T03:50:54;4.27;;;3.87;;
13816;SDS011;6979;52.116;5.286;2023-04-24T03:53:21;3.73;;;3.43;;
13816;SDS011;6979;52.116;5.286;2023-04-24T03:55:55;2.80;;;2.60;;
13816;SDS011;6979;52.116;5.286;2023-04-24T03:58:23;3.40;;;3.20;;
13816;SDS011;6979;52.116;5.286;2023-04-24T04:00:51;2.90;;;2.70;;
13816;SDS011;6979;52.116;5.286;2023-04-24T04:03:41;3.27;;;3.07;;
13816;SDS011;6979;52.116;5.286;2023-04-24T04:06:10;3.13;;;2.93;;
13816;SDS011;6979;52.116;5.286;2023-04-24T04:08:38;3.13;;;2.93;;
13816;SDS011;6979;52.116;5.286;2023-04-24T04:11:05;3.37;;;3.17;;
13816;SDS011;6979;52.116;5.286;2023-04-24T04:13:32;4.00;;;3.60;;
13816;SDS011;6979;52.116;5.286;2023-04-24T04:15:59;3.67;;;3.47;;
13816;SDS011;6979;52.116;5.286;2023-04-24T04:18:26;4.00;;;3.70;;
13816;SDS011;6979;52.116;5.286;2023-04-24T04:20:53;4.87;;;4.57;;
13816;SDS011;6979;52.116;5.286;2023-04-24T04:23:23;4.27;;;3.97;;
13816;SDS011;6979;52.116;5.286;2023-04-24T04:26:03;4.47;;;4.07;;
13816;SDS011;6979;52.116;5.286;2023-04-24T04:28:50;4.00;;;3.70;;
13816;SDS011;6979;52.116;5.286;2023-04-24T04:31:17;4.17;;;3.87;;
13816;SDS011;6979;52.116;5.286;2023-04-24T04:33:44;4.33;;;4.03;;
13816;SDS011;6979;52.116;5.286;2023-04-24T04:36:11;5.37;;;4.97;;
13816;SDS011;6979;52.116;5.286;2023-04-24T04:38:45;4.93;;;4.53;;
13816;SDS011;6979;52.116;5.286;2023-04-24T04:41:34;4.63;;;4.30;;
13816;SDS011;6979;52.116;5.286;2023-04-24T04:44:09;5.30;;;4.87;;
13816;SDS011;6979;52.116;5.286;2023-04-24T04:46:36;5.57;;;5.13;;
13816;SDS011;6979;52.116;5.286;2023-04-24T04:49:15;5.53;;;5.03;;
13816;SDS011;6979;52.116;5.286;2023-04-24T04:51:43;4.80;;;4.40;;
13816;SDS011;6979;52.116;5.286;2023-04-24T04:54:12;5.27;;;4.77;;
13816;SDS011;6979;52.116;5.286;2023-04-24T04:56:39;3.90;;;3.60;;
13816;SDS011;6979;52.116;5.286;2023-04-24T04:59:06;4.67;;;4.27;;
13816;SDS011;6979;52.116;5.286;2023-04-24T05:01:36;5.17;;;4.67;;
13816;SDS011;6979;52.116;5.286;2023-04-24T05:04:07;5.00;;;4.60;;
13816;SDS011;6979;52.116;5.286;2023-04-24T05:06:34;5.37;;;4.87;;
13816;SDS011;6979;52.116;5.286;2023-04-24T05:09:01;4.77;;;4.47;;
13816;SDS011;6979;52.116;5.286;2023-04-24T05:11:56;5.10;;;4.70;;
13816;SDS011;6979;52.116;5.286;2023-04-24T05:14:24;5.17;;;4.67;;
13816;SDS011;6979;52.116;5.286;2023-04-24T05:16:51;5.27;;;4.77;;
13816;SDS011;6979;52.116;5.286;2023-04-24T05:19:20;4.60;;;4.20;;
13816;SDS011;6979;52.116;5.286;2023-04-24T05:21:47;4.90;;;4.50;;
13816;SDS011;6979;52.116;5.286;2023-04-24T05:24:14;4.63;;;4.23;;
13816;SDS011;6979;52.116;5.286;2023-04-24T05:27:11;4.17;;;3.87;;
13816;SDS011;6979;52.116;5.286;2023-04-24T05:29:39;4.03;;;3.70;;
13816;SDS011;6979;52.116;5.286;2023-04-24T05:32:08;3.23;;;3.03;;
13816;SDS011;6979;52.116;5.286;2023-04-24T05:34:35;3.07;;;2.77;;
13816;SDS011;6979;52.116;5.286;2023-04-24T05:37:02;4.30;;;4.00;;
13816;SDS011;6979;52.116;5.286;2023-04-24T05:39:33;3.10;;;2.90;;
13816;SDS011;6979;52.116;5.286;2023-04-24T05:42:00;3.23;;;3.03;;
13816;SDS011;6979;52.116;5.286;2023-04-24T05:44:29;3.23;;;2.97;;
13816;SDS011;6979;52.116;5.286;2023-04-24T05:46:56;2.30;;;2.20;;
13816;SDS011;6979;52.116;5.286;2023-04-24T05:49:24;2.03;;;1.90;;
13816;SDS011;6979;52.116;5.286;2023-04-24T05:51:53;1.10;;;1.10;;
13816;SDS011;6979;52.116;5.286;2023-04-24T05:54:21;2.00;;;1.00;;
13816;SDS011;6979;52.116;5.286;2023-04-24T05:56:48;0.80;;;0.80;;
13816;SDS011;6979;52.116;5.286;2023-04-24T05:59:31;0.67;;;0.67;;
13816;SDS011;6979;52.116;5.286;2023-04-24T06:02:00;0.67;;;0.67;;
13816;SDS011;6979;52.116;5.286;2023-04-24T06:04:30;0.60;;;0.60;;
13816;SDS011;6979;52.116;5.286;2023-04-24T06:07:13;0.43;;;0.43;;
13816;SDS011;6979;52.116;5.286;2023-04-24T06:09:44;0.50;;;0.50;;
13816;SDS011;6979;52.116;5.286;2023-04-24T06:12:52;0.67;;;0.67;;
13816;SDS011;6979;52.116;5.286;2023-04-24T06:18:35;0.60;;;0.60;;
13816;SDS011;6979;52.116;5.286;2023-04-24T06:21:02;0.80;;;0.80;;
13816;SDS011;6979;52.116;5.286;2023-04-24T06:23:29;1.07;;;0.97;;
13816;SDS011;6979;52.116;5.286;2023-04-24T06:25:58;1.17;;;1.17;;
13816;SDS011;6979;52.116;5.286;2023-04-24T06:28:28;0.90;;;0.90;;
13816;SDS011;6979;52.116;5.286;2023-04-24T06:31:05;0.90;;;0.90;;
13816;SDS011;6979;52.116;5.286;2023-04-24T06:33:32;3.00;;;2.30;;
13816;SDS011;6979;52.116;5.286;2023-04-24T06:36:01;4.93;;;4.53;;
13816;SDS011;6979;52.116;5.286;2023-04-24T06:38:29;5.87;;;5.37;;
13816;SDS011;6979;52.116;5.286;2023-04-24T06:41:21;5.87;;;5.47;;
13816;SDS011;6979;52.116;5.286;2023-04-24T06:43:48;5.93;;;5.43;;
13816;SDS011;6979;52.116;5.286;2023-04-24T06:49:47;6.83;;;6.23;;
13816;SDS011;6979;52.116;5.286;2023-04-24T06:52:31;7.17;;;6.63;;
13816;SDS011;6979;52.116;5.286;2023-04-24T06:54:59;7.00;;;6.40;;
13816;SDS011;6979;52.116;5.286;2023-04-24T06:57:27;8.07;;;7.47;;
13816;SDS011;6979;52.116;5.286;2023-04-24T06:59:54;9.33;;;8.43;;
13816;SDS011;6979;52.116;5.286;2023-04-24T07:02:21;10.40;;;9.30;;
13816;SDS011;6979;52.116;5.286;2023-04-24T07:04:50;10.83;;;9.87;;
13816;SDS011;6979;52.116;5.286;2023-04-24T07:07:17;10.83;;;9.90;;
13816;SDS011;6979;52.116;5.286;2023-04-24T07:09:46;10.60;;;8.63;;
13816;SDS011;6979;52.116;5.286;2023-04-24T07:12:36;10.23;;;9.30;;
13816;SDS011;6979;52.116;5.286;2023-04-24T07:15:03;11.33;;;9.83;;
13816;SDS011;6979;52.116;5.286;2023-04-24T07:17:31;10.30;;;9.17;;
13816;SDS011;6979;52.116;5.286;2023-04-24T07:20:00;9.90;;;9.10;;
13816;SDS011;6979;52.116;5.286;2023-04-24T07:22:28;9.37;;;8.57;;
13816;SDS011;6979;52.116;5.286;2023-04-24T07:24:56;8.90;;;8.00;;
13816;SDS011;6979;52.116;5.286;2023-04-24T07:27:23;9.77;;;8.97;;
13816;SDS011;6979;52.116;5.286;2023-04-24T07:29:50;8.93;;;7.97;;
13816;SDS011;6979;52.116;5.286;2023-04-24T07:32:16;9.27;;;8.30;;
13816;SDS011;6979;52.116;5.286;2023-04-24T07:34:43;8.93;;;7.83;;
13816;SDS011;6979;52.116;5.286;2023-04-24T07:37:11;8.20;;;7.30;;
13816;SDS011;6979;52.116;5.286;2023-04-24T07:39:38;8.87;;;7.53;;
13816;SDS011;6979;52.116;5.286;2023-04-24T07:42:06;9.83;;;8.17;;
13816;SDS011;6979;52.116;5.286;2023-04-24T07:44:34;8.77;;;7.90;;
13816;SDS011;6979;52.116;5.286;2023-04-24T07:47:01;9.77;;;8.87;;
13816;SDS011;6979;52.116;5.286;2023-04-24T07:49:28;8.87;;;7.97;;
13816;SDS011;6979;52.116;5.286;2023-04-24T07:51:55;7.40;;;6.23;;
13816;SDS011;6979;52.116;5.286;2023-04-24T07:54:22;9.00;;;8.10;;
13816;SDS011;6979;52.116;5.286;2023-04-24T07:56:49;11.33;;;7.50;;
13816;SDS011;6979;52.116;5.286;2023-04-24T07:59:18;9.63;;;6.97;;
13816;SDS011;6979;52.116;5.286;2023-04-24T08:01:45;12.47;;;7.27;;
13816;SDS011;6979;52.116;5.286;2023-04-24T08:04:28;5.93;;;5.30;;
13816;SDS011;6979;52.116;5.286;2023-04-24T08:07:32;9.40;;;6.70;;
13816;SDS011;6979;52.116;5.286;2023-04-24T08:10:00;9.87;;;6.00;;
13816;SDS011;6979;52.116;5.286;2023-04-24T08:12:27;7.67;;;5.03;;
13816;SDS011;6979;52.116;5.286;2023-04-24T08:14:56;8.30;;;4.90;;
13816;SDS011;6979;52.116;5.286;2023-04-24T08:20:06;6.90;;;4.10;;
13816;SDS011;6979;52.116;5.286;2023-04-24T08:22:38;7.27;;;3.80;;
13816;SDS011;6979;52.116;5.286;2023-04-24T08:25:06;7.97;;;4.30;;
13816;SDS011;6979;52.116;5.286;2023-04-24T08:27:34;8.30;;;4.77;;
13816;SDS011;6979;52.116;5.286;2023-04-24T08:30:05;10.47;;;4.40;;
13816;SDS011;6979;52.116;5.286;2023-04-24T08:32:33;12.97;;;5.10;;
13816;SDS011;6979;52.116;5.286;2023-04-24T08:35:00;10.57;;;3.80;;
13816;SDS011;6979;52.116;5.286;2023-04-24T08:37:27;8.13;;;4.27;;
13816;SDS011;6979;52.116;5.286;2023-04-24T08:39:54;7.07;;;3.60;;
13816;SDS011;6979;52.116;5.286;2023-04-24T08:42:21;4.80;;;3.13;;
13816;SDS011;6979;52.116;5.286;2023-04-24T10:56:19;4.60;;;2.07;;
13816;SDS011;6979;52.116;5.286;2023-04-24T11:25:34;1.10;;;1.00;;
13816;SDS011;6979;52.116;5.286;2023-04-24T11:35:14;3.33;;;1.70;;
13816;SDS011;6979;52.116;5.286;2023-04-24T11:38:10;2.13;;;1.60;;
13816;SDS011;6979;52.116;5.286;2023-04-24T11:44:29;1.63;;;0.77;;
13816;SDS011;6979;52.116;5.286;2023-04-24T11:47:32;2.27;;;0.97;;
13816;SDS011;6979;52.116;5.286;2023-04-24T11:50:26;2.10;;;1.03;;
13816;SDS011;6979;52.116;5.286;2023-04-24T11:53:43;1.40;;;0.60;;
13816;SDS011;6979;52.116;5.286;2023-04-24T11:56:33;0.80;;;0.80;;
13816;SDS011;6979;52.116;5.286;2023-04-24T11:59:42;2.13;;;0.80;;
13816;SDS011;6979;52.116;5.286;2023-04-24T12:02:22;1.60;;;0.93;;
13816;SDS011;6979;52.116;5.286;2023-04-24T12:05:25;1.80;;;0.80;;
13816;SDS011;6979;52.116;5.286;2023-04-24T12:11:21;3.37;;;1.20;;
13816;SDS011;6979;52.116;5.286;2023-04-24T12:14:30;1.33;;;1.10;;
13816;SDS011;6979;52.116;5.286;2023-04-24T12:17:30;3.40;;;1.40;;
13816;SDS011;6979;52.116;5.286;2023-04-24T12:20:02;1.90;;;1.23;;
13816;SDS011;6979;52.116;5.286;2023-04-24T12:22:45;2.93;;;1.57;;
13816;SDS011;6979;52.116;5.286;2023-04-24T12:25:16;4.47;;;1.90;;
13816;SDS011;6979;52.116;5.286;2023-04-24T12:27:54;3.30;;;1.67;;
13816;SDS011;6979;52.116;5.286;2023-04-24T12:30:40;5.73;;;1.87;;
13816;SDS011;6979;52.116;5.286;2023-04-24T12:33:18;4.03;;;1.73;;
13816;SDS011;6979;52.116;5.286;2023-04-24T12:35:47;4.27;;;1.80;;
13816;SDS011;6979;52.116;5.286;2023-04-24T12:38:21;4.03;;;1.37;;
13816;SDS011;6979;52.116;5.286;2023-04-24T12:41:01;3.27;;;1.83;;
13816;SDS011;6979;52.116;5.286;2023-04-24T12:43:29;5.40;;;1.70;;
13816;SDS011;6979;52.116;5.286;2023-04-24T12:45:56;8.43;;;2.10;;
13816;SDS011;6979;52.116;5.286;2023-04-24T12:48:25;3.77;;;1.83;;
13816;SDS011;6979;52.116;5.286;2023-04-24T12:50:53;4.93;;;2.13;;
13816;SDS011;6979;52.116;5.286;2023-04-24T12:53:20;6.93;;;1.97;;
13816;SDS011;6979;52.116;5.286;2023-04-24T12:55:47;6.93;;;1.97;;
13816;SDS011;6979;52.116;5.286;2023-04-24T12:58:18;3.07;;;2.10;;
13816;SDS011;6979;52.116;5.286;2023-04-24T13:00:45;5.00;;;2.63;;
13816;SDS011;6979;52.116;5.286;2023-04-24T13:03:13;6.63;;;2.23;;
13816;SDS011;6979;52.116;5.286;2023-04-24T13:05:41;6.40;;;3.20;;
13816;SDS011;6979;52.116;5.286;2023-04-24T13:08:08;5.10;;;2.03;;
13816;SDS011;6979;52.116;5.286;2023-04-24T13:13:52;5.63;;;2.73;;
13816;SDS011;6979;52.116;5.286;2023-04-24T13:16:19;8.27;;;2.50;;
13816;SDS011;6979;52.116;5.286;2023-04-24T13:18:46;6.73;;;3.03;;
13816;SDS011;6979;52.116;5.286;2023-04-24T13:21:16;6.27;;;3.00;;
13816;SDS011;6979;52.116;5.286;2023-04-24T13:23:50;6.00;;;3.20;;
13816;SDS011;6979;52.116;5.286;2023-04-24T13:26:17;8.23;;;2.80;;
13816;SDS011;6979;52.116;5.286;2023-04-24T13:28:45;5.23;;;2.77;;
13816;SDS011;6979;52.116;5.286;2023-04-24T13:31:12;8.03;;;3.07;;
13816;SDS011;6979;52.116;5.286;2023-04-24T13:33:40;7.27;;;3.00;;
13816;SDS011;6979;52.116;5.286;2023-04-24T13:36:07;7.07;;;2.83;;
13816;SDS011;6979;52.116;5.286;2023-04-24T13:38:36;7.97;;;3.17;;
13816;SDS011;6979;52.116;5.286;2023-04-24T13:41:03;7.07;;;3.47;;
13816;SDS011;6979;52.116;5.286;2023-04-24T13:43:30;7.97;;;2.70;;
13816;SDS011;6979;52.116;5.286;2023-04-24T13:45:57;4.37;;;3.27;;
13816;SDS011;6979;52.116;5.286;2023-04-24T13:48:28;5.27;;;3.07;;
13816;SDS011;6979;52.116;5.286;2023-04-24T13:50:55;5.97;;;2.53;;
13816;SDS011;6979;52.116;5.286;2023-04-24T13:53:22;6.47;;;3.30;;
13816;SDS011;6979;52.116;5.286;2023-04-24T13:55:51;7.73;;;3.03;;
13816;SDS011;6979;52.116;5.286;2023-04-24T13:58:18;6.40;;;2.80;;
13816;SDS011;6979;52.116;5.286;2023-04-24T14:00:45;5.27;;;2.80;;
13816;SDS011;6979;52.116;5.286;2023-04-24T14:03:13;6.00;;;3.60;;
13816;SDS011;6979;52.116;5.286;2023-04-24T14:05:48;5.13;;;2.93;;
13816;SDS011;6979;52.116;5.286;2023-04-24T14:08:14;5.90;;;3.30;;
13816;SDS011;6979;52.116;5.286;2023-04-24T14:10:42;5.83;;;2.90;;
13816;SDS011;6979;52.116;5.286;2023-04-24T14:13:12;6.47;;;3.57;;
13816;SDS011;6979;52.116;5.286;2023-04-24T14:15:39;5.63;;;2.93;;
13816;SDS011;6979;52.116;5.286;2023-04-24T14:18:06;5.03;;;2.93;;
13816;SDS011;6979;52.116;5.286;2023-04-24T14:20:33;7.23;;;3.77;;
13816;SDS011;6979;52.116;5.286;2023-04-24T14:23:00;12.57;;;3.60;;
13816;SDS011;6979;52.116;5.286;2023-04-24T14:25:28;7.70;;;3.77;;
13816;SDS011;6979;52.116;5.286;2023-04-24T14:27:55;7.73;;;3.50;;
13816;SDS011;6979;52.116;5.286;2023-04-24T14:30:24;4.87;;;2.93;;
13816;SDS011;6979;52.116;5.286;2023-04-24T14:32:51;5.40;;;3.10;;
13816;SDS011;6979;52.116;5.286;2023-04-24T14:35:18;5.03;;;3.63;;
13816;SDS011;6979;52.116;5.286;2023-04-24T14:37:45;5.70;;;3.20;;
13816;SDS011;6979;52.116;5.286;2023-04-24T14:40:25;5.53;;;3.30;;
13816;SDS011;6979;52.116;5.286;2023-04-24T14:42:52;5.50;;;3.10;;
13816;SDS011;6979;52.116;5.286;2023-04-24T14:45:19;5.00;;;3.07;;
13816;SDS011;6979;52.116;5.286;2023-04-24T14:47:48;8.63;;;4.50;;
13816;SDS011;6979;52.116;5.286;2023-04-24T14:50:15;4.27;;;3.70;;
13816;SDS011;6979;52.116;5.286;2023-04-24T14:52:42;8.43;;;3.70;;
13816;SDS011;6979;52.116;5.286;2023-04-24T14:55:09;7.17;;;3.10;;
13816;SDS011;6979;52.116;5.286;2023-04-24T14:57:37;7.30;;;4.20;;
13816;SDS011;6979;52.116;5.286;2023-04-24T15:00:04;6.97;;;3.60;;
13816;SDS011;6979;52.116;5.286;2023-04-24T15:02:35;6.63;;;3.80;;
13816;SDS011;6979;52.116;5.286;2023-04-24T15:05:06;5.57;;;3.53;;
13816;SDS011;6979;52.116;5.286;2023-04-24T15:07:34;7.13;;;3.93;;
13816;SDS011;6979;52.116;5.286;2023-04-24T15:10:01;4.53;;;3.17;;
13816;SDS011;6979;52.116;5.286;2023-04-24T15:12:29;8.43;;;3.83;;
13816;SDS011;6979;52.116;5.286;2023-04-24T15:14:57;8.83;;;3.80;;
13816;SDS011;6979;52.116;5.286;2023-04-24T15:17:24;10.00;;;4.50;;
13816;SDS011;6979;52.116;5.286;2023-04-24T15:19:51;8.03;;;4.40;;
13816;SDS011;6979;52.116;5.286;2023-04-24T15:22:20;9.33;;;3.87;;
13816;SDS011;6979;52.116;5.286;2023-04-24T15:24:47;7.00;;;3.53;;
13816;SDS011;6979;52.116;5.286;2023-04-24T15:27:14;9.10;;;3.93;;
13816;SDS011;6979;52.116;5.286;2023-04-24T15:29:41;5.60;;;3.23;;
13816;SDS011;6979;52.116;5.286;2023-04-24T15:32:08;10.60;;;3.80;;
13816;SDS011;6979;52.116;5.286;2023-04-24T15:34:35;6.87;;;3.87;;
13816;SDS011;6979;52.116;5.286;2023-04-24T15:37:03;8.57;;;4.20;;
13816;SDS011;6979;52.116;5.286;2023-04-24T15:39:31;8.00;;;3.83;;
13816;SDS011;6979;52.116;5.286;2023-04-24T15:41:58;7.00;;;3.73;;
13816;SDS011;6979;52.116;5.286;2023-04-24T15:44:26;7.67;;;4.30;;
13816;SDS011;6979;52.116;5.286;2023-04-24T15:46:55;6.87;;;4.20;;
13816;SDS011;6979;52.116;5.286;2023-04-24T15:49:22;7.67;;;4.40;;
13816;SDS011;6979;52.116;5.286;2023-04-24T15:51:51;6.73;;;3.47;;
13816;SDS011;6979;52.116;5.286;2023-04-24T15:54:18;8.40;;;3.97;;
13816;SDS011;6979;52.116;5.286;2023-04-24T15:56:47;5.40;;;3.40;;
13816;SDS011;6979;52.116;5.286;2023-04-24T15:59:16;5.37;;;3.50;;
13816;SDS011;6979;52.116;5.286;2023-04-24T16:01:45;8.40;;;4.77;;
13816;SDS011;6979;52.116;5.286;2023-04-24T16:04:12;8.63;;;3.70;;
13816;SDS011;6979;52.116;5.286;2023-04-24T16:06:40;8.90;;;4.23;;
13816;SDS011;6979;52.116;5.286;2023-04-24T16:09:07;5.87;;;3.73;;
13816;SDS011;6979;52.116;5.286;2023-04-24T16:11:35;6.43;;;3.50;;
13816;SDS011;6979;52.116;5.286;2023-04-24T16:14:05;7.93;;;6.17;;
13816;SDS011;6979;52.116;5.286;2023-04-24T16:16:35;7.83;;;4.07;;
13816;SDS011;6979;52.116;5.286;2023-04-24T16:19:02;4.93;;;3.53;;
13816;SDS011;6979;52.116;5.286;2023-04-24T16:21:30;4.33;;;3.80;;
13816;SDS011;6979;52.116;5.286;2023-04-24T16:23:58;8.00;;;4.07;;
13816;SDS011;6979;52.116;5.286;2023-04-24T16:26:26;6.73;;;4.07;;
13816;SDS011;6979;52.116;5.286;2023-04-24T16:31:51;6.17;;;3.33;;
13816;SDS011;6979;52.116;5.286;2023-04-24T16:35:17;6.67;;;4.43;;
13816;SDS011;6979;52.116;5.286;2023-04-24T16:37:44;6.40;;;4.13;;
13816;SDS011;6979;52.116;5.286;2023-04-24T16:40:15;9.87;;;4.77;;
13816;SDS011;6979;52.116;5.286;2023-04-24T16:42:47;6.17;;;3.43;;
13816;SDS011;6979;52.116;5.286;2023-04-24T16:45:37;8.30;;;3.87;;
13816;SDS011;6979;52.116;5.286;2023-04-24T16:48:14;7.37;;;3.97;;
13816;SDS011;6979;52.116;5.286;2023-04-24T16:50:42;4.87;;;3.77;;
13816;SDS011;6979;52.116;5.286;2023-04-24T16:53:10;9.27;;;3.77;;
13816;SDS011;6979;52.116;5.286;2023-04-24T16:55:38;6.23;;;3.60;;
13816;SDS011;6979;52.116;5.286;2023-04-24T16:58:05;7.10;;;4.10;;
13816;SDS011;6979;52.116;5.286;2023-04-24T17:00:32;5.57;;;4.33;;
13816;SDS011;6979;52.116;5.286;2023-04-24T17:03:03;5.60;;;4.70;;
13816;SDS011;6979;52.116;5.286;2023-04-24T17:05:31;6.33;;;3.77;;
13816;SDS011;6979;52.116;5.286;2023-04-24T17:08:04;5.17;;;3.43;;
13816;SDS011;6979;52.116;5.286;2023-04-24T17:10:36;7.83;;;3.60;;
13816;SDS011;6979;52.116;5.286;2023-04-24T17:13:14;7.53;;;4.17;;
13816;SDS011;6979;52.116;5.286;2023-04-24T17:15:52;7.13;;;4.00;;
13816;SDS011;6979;52.116;5.286;2023-04-24T17:18:21;7.33;;;4.30;;
13816;SDS011;6979;52.116;5.286;2023-04-24T17:20:48;6.33;;;4.20;;
13816;SDS011;6979;52.116;5.286;2023-04-24T17:23:15;7.50;;;4.33;;
13816;SDS011;6979;52.116;5.286;2023-04-24T17:25:42;8.13;;;3.83;;
13816;SDS011;6979;52.116;5.286;2023-04-24T17:28:12;9.53;;;4.17;;
13816;SDS011;6979;52.116;5.286;2023-04-24T17:30:48;9.20;;;3.90;;
13816;SDS011;6979;52.116;5.286;2023-04-24T17:33:16;6.20;;;4.50;;
13816;SDS011;6979;52.116;5.286;2023-04-24T17:35:44;10.07;;;4.17;;
13816;SDS011;6979;52.116;5.286;2023-04-24T17:38:16;5.57;;;3.53;;
13816;SDS011;6979;52.116;5.286;2023-04-24T17:40:43;7.67;;;3.43;;
13816;SDS011;6979;52.116;5.286;2023-04-24T17:43:11;5.87;;;3.70;;
13816;SDS011;6979;52.116;5.286;2023-04-24T17:45:42;6.33;;;4.33;;
13816;SDS011;6979;52.116;5.286;2023-04-24T17:48:10;7.63;;;4.57;;
13816;SDS011;6979;52.116;5.286;2023-04-24T17:50:40;8.17;;;3.80;;
13816;SDS011;6979;52.116;5.286;2023-04-24T17:53:09;7.33;;;3.27;;
13816;SDS011;6979;52.116;5.286;2023-04-24T17:55:36;4.83;;;3.07;;
13816;SDS011;6979;52.116;5.286;2023-04-24T17:58:04;8.23;;;3.80;;
13816;SDS011;6979;52.116;5.286;2023-04-24T18:00:32;5.73;;;3.10;;
13816;SDS011;6979;52.116;5.286;2023-04-24T18:03:00;6.10;;;3.27;;
13816;SDS011;6979;52.116;5.286;2023-04-24T18:05:34;7.17;;;3.37;;
13816;SDS011;6979;52.116;5.286;2023-04-24T18:08:02;9.00;;;4.10;;
13816;SDS011;6979;52.116;5.286;2023-04-24T18:10:39;8.17;;;3.63;;
13816;SDS011;6979;52.116;5.286;2023-04-24T18:13:06;6.07;;;3.47;;
13816;SDS011;6979;52.116;5.286;2023-04-24T18:15:42;5.90;;;2.97;;
13816;SDS011;6979;52.116;5.286;2023-04-24T18:18:09;7.00;;;3.50;;
13816;SDS011;6979;52.116;5.286;2023-04-24T18:20:37;5.53;;;2.77;;
13816;SDS011;6979;52.116;5.286;2023-04-24T18:23:04;8.40;;;4.33;;
13816;SDS011;6979;52.116;5.286;2023-04-24T18:25:33;11.40;;;5.20;;
13816;SDS011;6979;52.116;5.286;2023-04-24T18:28:01;7.63;;;3.33;;
13816;SDS011;6979;52.116;5.286;2023-04-24T18:30:29;9.17;;;3.70;;
13816;SDS011;6979;52.116;5.286;2023-04-24T18:32:56;6.77;;;3.40;;
13816;SDS011;6979;52.116;5.286;2023-04-24T18:35:24;5.60;;;2.87;;
13816;SDS011;6979;52.116;5.286;2023-04-24T18:37:51;8.83;;;3.67;;